Terminal Aerodrome Forecast
Issued by NWS Huntsville, AL

Home | Current Version | Previous Version | Text Only | Print | Product List | Glossary On
Versions: 1 2 3 4 5 6 7 8 9 10 11 12 13 14 15 16 17 18 19 20
000
FTUS44 KHUN 171120
TAFHSV
TAF
KHSV 171120Z 1712/1812 18013G18KT P6SM VCSH BKN020 OVC050
     FM171600 20012G18KT P6SM -SHRA SCT007 OVC012
     FM180300 26009KT P6SM VCSH BKN009 OVC030
     FM180900 33005KT P6SM SCT020 BKN030=

USA.gov is the U.S. government's official web portal to all federal, state and local government web resources and services.